sensor_id;sensor_type;location;lat;lon;timestamp;pressure;altitude;pressure_sealevel;temperature;humidity
49709;BME280;35601;55.902;13.606;2023-12-20T00:01:11;99555.79;;;-0.26;86.65
49709;BME280;35601;55.902;13.606;2023-12-20T00:03:37;99561.99;;;-0.42;86.88
49709;BME280;35601;55.902;13.606;2023-12-20T00:06:02;99556.16;;;-0.25;87.06
49709;BME280;35601;55.902;13.606;2023-12-20T00:08:27;99554.30;;;0.01;87.14
49709;BME280;35601;55.902;13.606;2023-12-20T00:10:53;99552.95;;;-0.09;86.67
49709;BME280;35601;55.902;13.606;2023-12-20T00:13:18;99548.77;;;-0.13;86.57
49709;BME280;35601;55.902;13.606;2023-12-20T00:15:44;99546.43;;;0.14;86.65
49709;BME280;35601;55.902;13.606;2023-12-20T00:18:09;99544.30;;;0.01;86.28
49709;BME280;35601;55.902;13.606;2023-12-20T00:20:35;99548.23;;;-0.04;85.83
49709;BME280;35601;55.902;13.606;2023-12-20T00:23:00;99548.07;;;-0.29;85.84
49709;BME280;35601;55.902;13.606;2023-12-20T00:25:25;99547.11;;;-0.05;85.67
49709;BME280;35601;55.902;13.606;2023-12-20T00:27:51;99541.05;;;0.31;85.62
49709;BME280;35601;55.902;13.606;2023-12-20T00:30:16;99539.90;;;-0.11;85.17
49709;BME280;35601;55.902;13.606;2023-12-20T00:32:41;99529.72;;;0.08;85.12
49709;BME280;35601;55.902;13.606;2023-12-20T00:35:07;99524.37;;;0.06;85.84
49709;BME280;35601;55.902;13.606;2023-12-20T00:37:32;99515.03;;;0.30;85.79
49709;BME280;35601;55.902;13.606;2023-12-20T00:39:57;99508.41;;;0.20;85.40
49709;BME280;35601;55.902;13.606;2023-12-20T00:42:23;99505.15;;;0.03;85.05
49709;BME280;35601;55.902;13.606;2023-12-20T00:44:48;99507.90;;;0.06;84.96
49709;BME280;35601;55.902;13.606;2023-12-20T00:47:13;99507.44;;;0.15;84.35
49709;BME280;35601;55.902;13.606;2023-12-20T00:49:39;99502.42;;;-0.02;83.73
49709;BME280;35601;55.902;13.606;2023-12-20T00:52:05;99500.46;;;0.12;83.40
49709;BME280;35601;55.902;13.606;2023-12-20T00:54:30;99494.46;;;0.07;83.01
49709;BME280;35601;55.902;13.606;2023-12-20T00:56:55;99498.78;;;0.09;82.84
49709;BME280;35601;55.902;13.606;2023-12-20T00:59:20;99498.05;;;0.24;83.12
49709;BME280;35601;55.902;13.606;2023-12-20T01:01:46;99493.72;;;0.17;83.11
49709;BME280;35601;55.902;13.606;2023-12-20T01:04:11;99488.28;;;0.23;83.08
49709;BME280;35601;55.902;13.606;2023-12-20T01:06:36;99485.25;;;0.31;82.76
49709;BME280;35601;55.902;13.606;2023-12-20T01:09:02;99483.85;;;0.52;82.95
49709;BME280;35601;55.902;13.606;2023-12-20T01:11:27;99485.34;;;0.29;82.78
49709;BME280;35601;55.902;13.606;2023-12-20T01:13:52;99478.08;;;0.37;82.69
49709;BME280;35601;55.902;13.606;2023-12-20T01:16:18;99463.93;;;0.46;82.64
49709;BME280;35601;55.902;13.606;2023-12-20T01:18:43;99449.95;;;0.40;82.53
49709;BME280;35601;55.902;13.606;2023-12-20T01:21:08;99444.87;;;-0.05;84.75
49709;BME280;35601;55.902;13.606;2023-12-20T01:23:34;99437.33;;;0.06;87.32
49709;BME280;35601;55.902;13.606;2023-12-20T01:25:59;99434.59;;;0.11;87.83
49709;BME280;35601;55.902;13.606;2023-12-20T01:28:24;99436.12;;;0.00;88.28
49709;BME280;35601;55.902;13.606;2023-12-20T01:30:50;99434.49;;;-0.34;88.43
49709;BME280;35601;55.902;13.606;2023-12-20T01:33:15;99435.29;;;-0.13;88.68
49709;BME280;35601;55.902;13.606;2023-12-20T01:35:40;99437.71;;;-0.14;88.48
49709;BME280;35601;55.902;13.606;2023-12-20T01:38:06;99433.20;;;-0.06;88.32
49709;BME280;35601;55.902;13.606;2023-12-20T01:40:31;99432.30;;;-0.03;88.15
49709;BME280;35601;55.902;13.606;2023-12-20T01:42:59;99430.83;;;0.10;87.78
49709;BME280;35601;55.902;13.606;2023-12-20T01:45:22;99421.40;;;0.29;87.51
49709;BME280;35601;55.902;13.606;2023-12-20T01:47:47;99414.02;;;-0.17;87.43
49709;BME280;35601;55.902;13.606;2023-12-20T01:50:12;99410.00;;;0.41;87.29
49709;BME280;35601;55.902;13.606;2023-12-20T01:52:38;99404.34;;;0.11;87.88
49709;BME280;35601;55.902;13.606;2023-12-20T01:55:04;99398.93;;;0.03;88.53
49709;BME280;35601;55.902;13.606;2023-12-20T01:57:28;99393.89;;;0.18;88.88
49709;BME280;35601;55.902;13.606;2023-12-20T01:59:54;99390.16;;;0.40;88.80
49709;BME280;35601;55.902;13.606;2023-12-20T02:02:20;99387.71;;;0.02;88.86
49709;BME280;35601;55.902;13.606;2023-12-20T02:04:44;99386.12;;;0.55;89.09
49709;BME280;35601;55.902;13.606;2023-12-20T02:07:10;99380.87;;;0.58;89.61
49709;BME280;35601;55.902;13.606;2023-12-20T02:09:35;99376.28;;;0.19;89.41
49709;BME280;35601;55.902;13.606;2023-12-20T02:12:01;99374.56;;;0.50;89.03
49709;BME280;35601;55.902;13.606;2023-12-20T02:14:26;99371.91;;;0.44;89.12
49709;BME280;35601;55.902;13.606;2023-12-20T02:16:51;99371.27;;;0.51;89.21
49709;BME280;35601;55.902;13.606;2023-12-20T02:19:17;99362.62;;;0.54;89.29
49709;BME280;35601;55.902;13.606;2023-12-20T02:21:42;99358.64;;;0.58;89.50
49709;BME280;35601;55.902;13.606;2023-12-20T02:24:07;99358.54;;;0.95;89.19
49709;BME280;35601;55.902;13.606;2023-12-20T02:26:33;99356.38;;;0.72;89.42
49709;BME280;35601;55.902;13.606;2023-12-20T02:28:59;99351.20;;;0.59;89.26
49709;BME280;35601;55.902;13.606;2023-12-20T02:31:26;99345.30;;;0.55;89.46
49709;BME280;35601;55.902;13.606;2023-12-20T02:33:50;99339.63;;;0.75;89.93
49709;BME280;35601;55.902;13.606;2023-12-20T02:36:15;99338.51;;;0.47;90.16
49709;BME280;35601;55.902;13.606;2023-12-20T02:38:41;99339.01;;;0.52;90.15
49709;BME280;35601;55.902;13.606;2023-12-20T02:41:06;99335.79;;;0.79;90.13
49709;BME280;35601;55.902;13.606;2023-12-20T02:43:32;99328.72;;;0.54;90.19
49709;BME280;35601;55.902;13.606;2023-12-20T02:45:57;99324.38;;;0.41;90.61
49709;BME280;35601;55.902;13.606;2023-12-20T02:48:22;99318.49;;;0.91;90.93
49709;BME280;35601;55.902;13.606;2023-12-20T02:50:48;99316.58;;;0.51;90.48
49709;BME280;35601;55.902;13.606;2023-12-20T02:53:13;99306.72;;;0.87;90.17
49709;BME280;35601;55.902;13.606;2023-12-20T02:55:38;99310.77;;;0.64;89.99
49709;BME280;35601;55.902;13.606;2023-12-20T02:58:04;99317.27;;;0.65;89.91
49709;BME280;35601;55.902;13.606;2023-12-20T03:00:29;99318.67;;;0.77;89.41
49709;BME280;35601;55.902;13.606;2023-12-20T03:02:54;99310.00;;;1.02;89.03
49709;BME280;35601;55.902;13.606;2023-12-20T03:05:19;99311.10;;;0.73;89.26
49709;BME280;35601;55.902;13.606;2023-12-20T03:07:45;99307.31;;;0.99;89.63
49709;BME280;35601;55.902;13.606;2023-12-20T03:10:10;99299.81;;;1.01;89.84
49709;BME280;35601;55.902;13.606;2023-12-20T03:12:36;99292.26;;;0.87;90.18
49709;BME280;35601;55.902;13.606;2023-12-20T03:15:01;99285.25;;;0.86;90.86
49709;BME280;35601;55.902;13.606;2023-12-20T03:17:26;99281.07;;;0.97;90.26
49709;BME280;35601;55.902;13.606;2023-12-20T03:19:52;99282.10;;;0.79;89.56
49709;BME280;35601;55.902;13.606;2023-12-20T03:22:17;99273.79;;;1.23;89.80
49709;BME280;35601;55.902;13.606;2023-12-20T03:24:43;99274.66;;;0.98;89.80
49709;BME280;35601;55.902;13.606;2023-12-20T03:27:08;99267.47;;;0.92;90.25
49709;BME280;35601;55.902;13.606;2023-12-20T03:29:33;99258.27;;;0.96;89.98
49709;BME280;35601;55.902;13.606;2023-12-20T03:32:00;99258.59;;;0.92;90.30
49709;BME280;35601;55.902;13.606;2023-12-20T03:34:25;99255.11;;;0.92;90.31
49709;BME280;35601;55.902;13.606;2023-12-20T03:36:50;99250.90;;;1.08;90.75
49709;BME280;35601;55.902;13.606;2023-12-20T03:39:15;99244.23;;;0.81;90.90
49709;BME280;35601;55.902;13.606;2023-12-20T03:41:41;99245.59;;;0.84;91.32
49709;BME280;35601;55.902;13.606;2023-12-20T03:44:06;99247.92;;;1.09;91.72
49709;BME280;35601;55.902;13.606;2023-12-20T03:46:31;99238.58;;;0.94;91.35
49709;BME280;35601;55.902;13.606;2023-12-20T03:48:57;99239.63;;;0.83;91.57
49709;BME280;35601;55.902;13.606;2023-12-20T03:51:22;99232.67;;;0.79;91.99
49709;BME280;35601;55.902;13.606;2023-12-20T03:53:48;99234.82;;;0.61;93.08
49709;BME280;35601;55.902;13.606;2023-12-20T03:56:13;99239.60;;;0.70;93.17
49709;BME280;35601;55.902;13.606;2023-12-20T03:58:38;99237.13;;;0.91;92.84
49709;BME280;35601;55.902;13.606;2023-12-20T04:01:09;99232.48;;;0.66;92.74
49709;BME280;35601;55.902;13.606;2023-12-20T04:03:29;99226.99;;;1.02;92.69
49709;BME280;35601;55.902;13.606;2023-12-20T04:05:54;99228.87;;;1.08;92.34
49709;BME280;35601;55.902;13.606;2023-12-20T04:08:20;99226.34;;;0.87;92.27
49709;BME280;35601;55.902;13.606;2023-12-20T04:10:45;99224.84;;;0.91;93.10
49709;BME280;35601;55.902;13.606;2023-12-20T04:13:11;99217.91;;;0.93;93.10
49709;BME280;35601;55.902;13.606;2023-12-20T04:15:36;99220.85;;;1.06;92.98
49709;BME280;35601;55.902;13.606;2023-12-20T04:18:01;99216.19;;;1.11;92.75
49709;BME280;35601;55.902;13.606;2023-12-20T04:20:27;99205.29;;;1.13;92.85
49709;BME280;35601;55.902;13.606;2023-12-20T04:22:52;99197.51;;;1.14;93.67
49709;BME280;35601;55.902;13.606;2023-12-20T04:25:17;99190.63;;;1.26;93.62
49709;BME280;35601;55.902;13.606;2023-12-20T04:27:43;99184.31;;;0.71;93.50
49709;BME280;35601;55.902;13.606;2023-12-20T04:30:09;99185.65;;;1.10;93.71
49709;BME280;35601;55.902;13.606;2023-12-20T04:32:35;99187.72;;;1.23;93.38
49709;BME280;35601;55.902;13.606;2023-12-20T04:35:00;99191.65;;;0.98;92.55
49709;BME280;35601;55.902;13.606;2023-12-20T04:37:25;99186.47;;;1.20;92.30
49709;BME280;35601;55.902;13.606;2023-12-20T04:39:51;99183.89;;;1.23;92.60
49709;BME280;35601;55.902;13.606;2023-12-20T04:42:16;99176.02;;;1.24;92.68
49709;BME280;35601;55.902;13.606;2023-12-20T04:44:42;99166.47;;;1.02;92.67
49709;BME280;35601;55.902;13.606;2023-12-20T04:47:07;99171.64;;;1.26;92.71
49709;BME280;35601;55.902;13.606;2023-12-20T04:49:33;99166.06;;;1.12;92.36
49709;BME280;35601;55.902;13.606;2023-12-20T04:51:58;99164.42;;;1.19;92.16
49709;BME280;35601;55.902;13.606;2023-12-20T04:54:24;99163.36;;;1.18;91.91
49709;BME280;35601;55.902;13.606;2023-12-20T04:56:49;99159.55;;;1.18;92.38
49709;BME280;35601;55.902;13.606;2023-12-20T04:59:14;99150.67;;;1.50;93.12
49709;BME280;35601;55.902;13.606;2023-12-20T05:01:40;99146.58;;;1.56;93.06
49709;BME280;35601;55.902;13.606;2023-12-20T05:04:05;99139.66;;;1.02;93.09
49709;BME280;35601;55.902;13.606;2023-12-20T05:06:30;99132.88;;;1.39;93.55
49709;BME280;35601;55.902;13.606;2023-12-20T05:08:56;99133.89;;;1.23;94.50
49709;BME280;35601;55.902;13.606;2023-12-20T05:11:21;99126.99;;;1.03;94.82
49709;BME280;35601;55.902;13.606;2023-12-20T05:13:46;99121.44;;;0.69;95.10
49709;BME280;35601;55.902;13.606;2023-12-20T05:16:12;99126.14;;;1.07;95.94
49709;BME280;35601;55.902;13.606;2023-12-20T05:18:37;99124.51;;;1.30;95.23
49709;BME280;35601;55.902;13.606;2023-12-20T05:21:03;99117.47;;;0.91;96.54
49709;BME280;35601;55.902;13.606;2023-12-20T05:23:28;99117.73;;;1.09;96.28
49709;BME280;35601;55.902;13.606;2023-12-20T05:25:54;99115.71;;;1.00;96.08
49709;BME280;35601;55.902;13.606;2023-12-20T05:28:19;99110.12;;;1.05;96.33
49709;BME280;35601;55.902;13.606;2023-12-20T05:30:45;99107.98;;;1.05;97.14
49709;BME280;35601;55.902;13.606;2023-12-20T05:33:10;99104.24;;;1.26;96.28
49709;BME280;35601;55.902;13.606;2023-12-20T05:35:36;99094.76;;;1.24;96.27
49709;BME280;35601;55.902;13.606;2023-12-20T05:38:01;99090.72;;;1.41;95.52
49709;BME280;35601;55.902;13.606;2023-12-20T05:40:27;99080.24;;;0.03;95.19
49709;BME280;35601;55.902;13.606;2023-12-20T05:42:52;99076.74;;;1.65;94.44
49709;BME280;35601;55.902;13.606;2023-12-20T05:45:18;99074.58;;;1.42;94.74
49709;BME280;35601;55.902;13.606;2023-12-20T05:47:43;99073.86;;;1.48;94.13
49709;BME280;35601;55.902;13.606;2023-12-20T05:50:08;99067.06;;;1.25;93.69
49709;BME280;35601;55.902;13.606;2023-12-20T05:52:34;99065.05;;;1.55;93.27
49709;BME280;35601;55.902;13.606;2023-12-20T05:54:59;99060.01;;;1.34;93.45
49709;BME280;35601;55.902;13.606;2023-12-20T05:57:25;99071.79;;;1.18;95.29
49709;BME280;35601;55.902;13.606;2023-12-20T05:59:50;99070.23;;;1.21;94.74
49709;BME280;35601;55.902;13.606;2023-12-20T06:02:16;99061.36;;;1.55;94.29
49709;BME280;35601;55.902;13.606;2023-12-20T06:04:42;99062.77;;;1.38;93.94
49709;BME280;35601;55.902;13.606;2023-12-20T06:07:07;99056.83;;;1.50;92.91
49709;BME280;35601;55.902;13.606;2023-12-20T06:09:33;99049.36;;;1.74;91.71
49709;BME280;35601;55.902;13.606;2023-12-20T06:11:58;99051.17;;;1.22;91.56
49709;BME280;35601;55.902;13.606;2023-12-20T06:14:23;99049.61;;;1.32;90.87
49709;BME280;35601;55.902;13.606;2023-12-20T06:16:48;99042.84;;;1.49;90.35
49709;BME280;35601;55.902;13.606;2023-12-20T06:19:14;99044.13;;;1.52;90.27
49709;BME280;35601;55.902;13.606;2023-12-20T06:21:39;99039.70;;;1.62;90.40
49709;BME280;35601;55.902;13.606;2023-12-20T06:24:05;99037.40;;;1.42;91.75
49709;BME280;35601;55.902;13.606;2023-12-20T06:26:30;99033.09;;;1.50;91.84
49709;BME280;35601;55.902;13.606;2023-12-20T06:28:55;99028.26;;;1.55;91.60
49709;BME280;35601;55.902;13.606;2023-12-20T06:31:21;99033.21;;;1.35;91.72
49709;BME280;35601;55.902;13.606;2023-12-20T06:33:46;99025.30;;;1.47;91.05
49709;BME280;35601;55.902;13.606;2023-12-20T06:36:11;99025.85;;;1.25;91.16
49709;BME280;35601;55.902;13.606;2023-12-20T06:38:36;99026.66;;;1.75;91.13
49709;BME280;35601;55.902;13.606;2023-12-20T06:41:02;99022.69;;;1.24;91.33
49709;BME280;35601;55.902;13.606;2023-12-20T06:43:27;99022.23;;;1.49;91.37
49709;BME280;35601;55.902;13.606;2023-12-20T06:45:52;99019.56;;;1.47;90.82
49709;BME280;35601;55.902;13.606;2023-12-20T06:48:17;99007.89;;;1.71;90.75
49709;BME280;35601;55.902;13.606;2023-12-20T06:50:43;99007.61;;;1.59;90.41
49709;BME280;35601;55.902;13.606;2023-12-20T06:53:08;99001.59;;;1.62;90.37
49709;BME280;35601;55.902;13.606;2023-12-20T06:55:35;99004.71;;;1.64;90.56
49709;BME280;35601;55.902;13.606;2023-12-20T06:58:00;99006.51;;;1.70;90.25
49709;BME280;35601;55.902;13.606;2023-12-20T07:00:25;98997.42;;;1.53;90.25
49709;BME280;35601;55.902;13.606;2023-12-20T07:02:50;98992.02;;;1.83;89.76
49709;BME280;35601;55.902;13.606;2023-12-20T07:05:16;98988.94;;;1.43;90.12
49709;BME280;35601;55.902;13.606;2023-12-20T07:07:41;98987.46;;;1.54;89.79
49709;BME280;35601;55.902;13.606;2023-12-20T07:10:08;98985.89;;;1.64;89.48
49709;BME280;35601;55.902;13.606;2023-12-20T07:12:32;98983.59;;;1.59;89.57
49709;BME280;35601;55.902;13.606;2023-12-20T07:14:57;98978.83;;;1.43;89.33
49709;BME280;35601;55.902;13.606;2023-12-20T07:17:22;98974.86;;;1.67;89.25
49709;BME280;35601;55.902;13.606;2023-12-20T07:19:48;98977.06;;;1.62;89.22
49709;BME280;35601;55.902;13.606;2023-12-20T07:22:13;98973.37;;;1.59;89.26
49709;BME280;35601;55.902;13.606;2023-12-20T07:24:38;98971.18;;;1.58;89.51
49709;BME280;35601;55.902;13.606;2023-12-20T07:27:04;98964.73;;;1.59;89.57
49709;BME280;35601;55.902;13.606;2023-12-20T07:29:29;98960.14;;;1.24;91.09
49709;BME280;35601;55.902;13.606;2023-12-20T07:31:54;98961.83;;;1.17;91.93
49709;BME280;35601;55.902;13.606;2023-12-20T07:34:20;98959.19;;;1.41;92.29
49709;BME280;35601;55.902;13.606;2023-12-20T07:36:45;98958.23;;;1.34;93.09
49709;BME280;35601;55.902;13.606;2023-12-20T07:39:10;98957.40;;;1.61;93.29
49709;BME280;35601;55.902;13.606;2023-12-20T07:41:35;98963.94;;;1.43;92.53
49709;BME280;35601;55.902;13.606;2023-12-20T07:44:01;98964.59;;;1.46;92.48
49709;BME280;35601;55.902;13.606;2023-12-20T07:46:26;98959.69;;;1.32;91.97
49709;BME280;35601;55.902;13.606;2023-12-20T07:48:51;98962.88;;;1.23;92.12
49709;BME280;35601;55.902;13.606;2023-12-20T07:51:17;98967.71;;;1.12;92.80
49709;BME280;35601;55.902;13.606;2023-12-20T07:53:42;98963.89;;;0.92;93.72
49709;BME280;35601;55.902;13.606;2023-12-20T07:56:14;98969.33;;;1.40;93.16
49709;BME280;35601;55.902;13.606;2023-12-20T07:58:33;98973.72;;;0.89;93.73
49709;BME280;35601;55.902;13.606;2023-12-20T08:00:59;98967.02;;;1.33;93.61
49709;BME280;35601;55.902;13.606;2023-12-20T08:03:24;98966.40;;;1.33;94.37
49709;BME280;35601;55.902;13.606;2023-12-20T08:05:50;98960.58;;;1.46;94.06
49709;BME280;35601;55.902;13.606;2023-12-20T08:08:15;98958.21;;;1.33;93.73
49709;BME280;35601;55.902;13.606;2023-12-20T08:10:40;98955.45;;;1.28;93.50
49709;BME280;35601;55.902;13.606;2023-12-20T08:13:06;98951.82;;;1.22;93.97
49709;BME280;35601;55.902;13.606;2023-12-20T08:15:32;98949.92;;;1.11;93.71
49709;BME280;35601;55.902;13.606;2023-12-20T08:17:57;98952.24;;;1.19;94.03
49709;BME280;35601;55.902;13.606;2023-12-20T08:20:23;98949.17;;;1.44;93.63
49709;BME280;35601;55.902;13.606;2023-12-20T08:22:48;98949.35;;;1.34;92.84
49709;BME280;35601;55.902;13.606;2023-12-20T08:25:13;98944.03;;;1.23;92.14
49709;BME280;35601;55.902;13.606;2023-12-20T08:27:40;98938.98;;;0.82;91.41
49709;BME280;35601;55.902;13.606;2023-12-20T08:30:06;98933.03;;;1.31;90.54
49709;BME280;35601;55.902;13.606;2023-12-20T08:32:30;98928.37;;;1.47;89.86
49709;BME280;35601;55.902;13.606;2023-12-20T08:34:55;98932.57;;;1.52;89.64
49709;BME280;35601;55.902;13.606;2023-12-20T08:37:21;98934.98;;;1.45;89.54
49709;BME280;35601;55.902;13.606;2023-12-20T08:39:46;98931.86;;;1.57;89.47
49709;BME280;35601;55.902;13.606;2023-12-20T08:42:11;98928.01;;;1.58;89.36
49709;BME280;35601;55.902;13.606;2023-12-20T08:44:37;98930.66;;;1.43;89.50
49709;BME280;35601;55.902;13.606;2023-12-20T08:47:02;98933.10;;;1.50;89.42
49709;BME280;35601;55.902;13.606;2023-12-20T08:49:27;98937.64;;;1.46;89.39
49709;BME280;35601;55.902;13.606;2023-12-20T08:51:53;98931.31;;;1.55;89.30
49709;BME280;35601;55.902;13.606;2023-12-20T08:54:18;98936.82;;;1.59;88.74
49709;BME280;35601;55.902;13.606;2023-12-20T08:56:43;98934.96;;;1.55;88.89
49709;BME280;35601;55.902;13.606;2023-12-20T08:59:09;98943.38;;;1.73;88.80
49709;BME280;35601;55.902;13.606;2023-12-20T09:01:34;98943.39;;;1.56;88.87
49709;BME280;35601;55.902;13.606;2023-12-20T09:03:59;98942.24;;;1.28;88.40
49709;BME280;35601;55.902;13.606;2023-12-20T09:06:24;98941.04;;;1.41;88.59
49709;BME280;35601;55.902;13.606;2023-12-20T09:08:51;98932.45;;;1.38;88.36
49709;BME280;35601;55.902;13.606;2023-12-20T09:11:15;98929.83;;;1.33;88.91
49709;BME280;35601;55.902;13.606;2023-12-20T09:13:40;98923.77;;;1.23;89.41
49709;BME280;35601;55.902;13.606;2023-12-20T09:16:06;98926.86;;;1.62;89.10
49709;BME280;35601;55.902;13.606;2023-12-20T09:18:32;98925.82;;;1.41;88.65
49709;BME280;35601;55.902;13.606;2023-12-20T09:20:57;98927.34;;;1.53;88.12
49709;BME280;35601;55.902;13.606;2023-12-20T09:23:22;98913.89;;;1.39;88.61
49709;BME280;35601;55.902;13.606;2023-12-20T09:25:48;98907.67;;;1.43;88.58
49709;BME280;35601;55.902;13.606;2023-12-20T09:28:13;98909.41;;;1.16;88.58
49709;BME280;35601;55.902;13.606;2023-12-20T09:30:38;98905.60;;;1.37;88.75
49709;BME280;35601;55.902;13.606;2023-12-20T09:33:04;98904.88;;;1.14;89.26
49709;BME280;35601;55.902;13.606;2023-12-20T09:35:29;98904.08;;;1.09;90.02
49709;BME280;35601;55.902;13.606;2023-12-20T09:37:54;98899.72;;;0.87;90.90
49709;BME280;35601;55.902;13.606;2023-12-20T09:40:20;98905.28;;;1.22;90.79
49709;BME280;35601;55.902;13.606;2023-12-20T09:42:48;98895.26;;;1.07;90.76
49709;BME280;35601;55.902;13.606;2023-12-20T09:45:13;98891.57;;;1.21;90.42
49709;BME280;35601;55.902;13.606;2023-12-20T09:47:36;98884.24;;;1.41;90.08
49709;BME280;35601;55.902;13.606;2023-12-20T09:50:01;98880.61;;;1.23;91.02
49709;BME280;35601;55.902;13.606;2023-12-20T09:52:26;98875.24;;;1.06;91.41
49709;BME280;35601;55.902;13.606;2023-12-20T09:54:52;98872.69;;;1.05;91.21
49709;BME280;35601;55.902;13.606;2023-12-20T09:57:17;98875.07;;;1.34;90.49
49709;BME280;35601;55.902;13.606;2023-12-20T09:59:42;98862.36;;;1.47;89.56
49709;BME280;35601;55.902;13.606;2023-12-20T10:02:12;98858.51;;;1.53;89.16
49709;BME280;35601;55.902;13.606;2023-12-20T10:04:34;98856.51;;;1.73;88.52
49709;BME280;35601;55.902;13.606;2023-12-20T10:07:02;98859.56;;;1.87;87.91
49709;BME280;35601;55.902;13.606;2023-12-20T10:09:24;98847.27;;;1.82;87.63
49709;BME280;35601;55.902;13.606;2023-12-20T10:11:49;98844.89;;;1.65;87.13
49709;BME280;35601;55.902;13.606;2023-12-20T10:14:16;98843.01;;;1.65;86.97
49709;BME280;35601;55.902;13.606;2023-12-20T10:16:40;98838.95;;;1.92;87.37
49709;BME280;35601;55.902;13.606;2023-12-20T10:19:05;98827.58;;;2.06;86.96
49709;BME280;35601;55.902;13.606;2023-12-20T10:21:30;98817.97;;;2.09;87.23
49709;BME280;35601;55.902;13.606;2023-12-20T10:23:56;98816.40;;;1.75;86.79
49709;BME280;35601;55.902;13.606;2023-12-20T10:26:21;98808.79;;;1.69;86.07
49709;BME280;35601;55.902;13.606;2023-12-20T10:28:49;98806.98;;;1.77;86.08
49709;BME280;35601;55.902;13.606;2023-12-20T10:31:26;98806.37;;;1.78;85.21
49709;BME280;35601;55.902;13.606;2023-12-20T10:33:40;98807.64;;;1.64;86.58
49709;BME280;35601;55.902;13.606;2023-12-20T10:36:03;98802.81;;;1.84;86.41
49709;BME280;35601;55.902;13.606;2023-12-20T10:38:27;98805.51;;;2.06;85.62
49709;BME280;35601;55.902;13.606;2023-12-20T10:40:56;98801.01;;;2.01;85.83
49709;BME280;35601;55.902;13.606;2023-12-20T10:43:18;98797.06;;;1.90;85.98
49709;BME280;35601;55.902;13.606;2023-12-20T10:45:43;98796.13;;;2.07;85.42
49709;BME280;35601;55.902;13.606;2023-12-20T10:48:10;98791.70;;;2.01;85.21
49709;BME280;35601;55.902;13.606;2023-12-20T10:50:36;98786.27;;;1.99;85.12
49709;BME280;35601;55.902;13.606;2023-12-20T10:53:00;98782.30;;;1.69;84.86
49709;BME280;35601;55.902;13.606;2023-12-20T10:55:26;98776.64;;;1.47;84.89
49709;BME280;35601;55.902;13.606;2023-12-20T10:57:51;98771.28;;;1.99;84.65
49709;BME280;35601;55.902;13.606;2023-12-20T11:00:17;98773.73;;;1.54;84.70
49709;BME280;35601;55.902;13.606;2023-12-20T11:02:41;98771.08;;;1.86;85.06
49709;BME280;35601;55.902;13.606;2023-12-20T11:05:13;98764.68;;;1.35;84.67
49709;BME280;35601;55.902;13.606;2023-12-20T11:07:35;98756.20;;;1.58;84.72
49709;BME280;35601;55.902;13.606;2023-12-20T11:09:59;98752.57;;;2.01;84.39
49709;BME280;35601;55.902;13.606;2023-12-20T11:12:31;98747.71;;;2.03;84.49
49709;BME280;35601;55.902;13.606;2023-12-20T11:14:50;98744.10;;;1.56;84.35
49709;BME280;35601;55.902;13.606;2023-12-20T11:17:13;98744.35;;;1.90;84.05
49709;BME280;35601;55.902;13.606;2023-12-20T11:22:04;98740.95;;;1.63;83.77
49709;BME280;35601;55.902;13.606;2023-12-20T11:24:31;98737.94;;;1.95;83.68
49709;BME280;35601;55.902;13.606;2023-12-20T11:26:56;98738.72;;;1.92;83.79
49709;BME280;35601;55.902;13.606;2023-12-20T11:29:30;98734.29;;;1.95;83.83
49709;BME280;35601;55.902;13.606;2023-12-20T11:31:46;98729.86;;;1.77;83.58
49709;BME280;35601;55.902;13.606;2023-12-20T11:34:13;98727.17;;;1.77;83.95
49709;BME280;35601;55.902;13.606;2023-12-20T11:36:39;98725.79;;;2.27;83.84
49709;BME280;35601;55.902;13.606;2023-12-20T11:39:04;98723.60;;;1.68;83.64
49709;BME280;35601;55.902;13.606;2023-12-20T11:41:28;98724.12;;;1.75;83.90
49709;BME280;35601;55.902;13.606;2023-12-20T11:43:53;98726.22;;;1.69;83.94
49709;BME280;35601;55.902;13.606;2023-12-20T11:46:18;98719.04;;;1.59;84.13
49709;BME280;35601;55.902;13.606;2023-12-20T11:48:44;98713.01;;;1.58;84.39
49709;BME280;35601;55.902;13.606;2023-12-20T11:51:10;98712.15;;;1.62;84.39
49709;BME280;35601;55.902;13.606;2023-12-20T11:53:34;98711.77;;;1.77;84.70
49709;BME280;35601;55.902;13.606;2023-12-20T11:56:00;98707.68;;;1.52;84.61
49709;BME280;35601;55.902;13.606;2023-12-20T11:58:25;98704.17;;;2.02;84.89
49709;BME280;35601;55.902;13.606;2023-12-20T12:00:50;98702.62;;;1.51;84.51
49709;BME280;35601;55.902;13.606;2023-12-20T12:03:15;98701.48;;;1.59;85.11
49709;BME280;35601;55.902;13.606;2023-12-20T12:05:41;98701.07;;;1.60;85.07
49709;BME280;35601;55.902;13.606;2023-12-20T12:08:06;98693.85;;;1.54;85.51
49709;BME280;35601;55.902;13.606;2023-12-20T12:10:31;98690.77;;;1.61;85.13
49709;BME280;35601;55.902;13.606;2023-12-20T12:12:57;98687.97;;;1.61;85.26
49709;BME280;35601;55.902;13.606;2023-12-20T12:15:22;98685.62;;;1.61;85.14
49709;BME280;35601;55.902;13.606;2023-12-20T12:17:53;98680.79;;;1.67;85.32
49709;BME280;35601;55.902;13.606;2023-12-20T12:20:13;98675.75;;;1.64;84.84
49709;BME280;35601;55.902;13.606;2023-12-20T12:22:38;98682.15;;;1.72;84.84
49709;BME280;35601;55.902;13.606;2023-12-20T12:25:11;98677.01;;;1.57;85.44
49709;BME280;35601;55.902;13.606;2023-12-20T12:27:29;98677.25;;;1.50;85.21
49709;BME280;35601;55.902;13.606;2023-12-20T12:30:01;98677.27;;;1.39;85.24
49709;BME280;35601;55.902;13.606;2023-12-20T12:32:20;98672.37;;;1.22;84.13
49709;BME280;35601;55.902;13.606;2023-12-20T12:34:45;98671.98;;;1.27;83.30
49709;BME280;35601;55.902;13.606;2023-12-20T12:37:10;98663.42;;;1.21;83.84
49709;BME280;35601;55.902;13.606;2023-12-20T12:39:35;98664.76;;;1.34;84.19
49709;BME280;35601;55.902;13.606;2023-12-20T12:42:01;98662.85;;;1.05;84.36
49709;BME280;35601;55.902;13.606;2023-12-20T12:44:26;98667.50;;;1.02;84.27
49709;BME280;35601;55.902;13.606;2023-12-20T12:46:52;98667.62;;;0.93;84.01
49709;BME280;35601;55.902;13.606;2023-12-20T12:49:17;98671.49;;;0.80;83.89
49709;BME280;35601;55.902;13.606;2023-12-20T12:51:42;98680.64;;;1.22;84.64